createdAt,value
2018-12-24T00:01:36.576Z,6.63
2018-12-24T00:04:59.527Z,7.53
2018-12-24T00:08:22.743Z,7.53
2018-12-24T00:11:45.468Z,7.07
2018-12-24T00:15:08.146Z,6.97
2018-12-24T00:18:30.964Z,6.13
2018-12-24T00:21:54.080Z,6.70
2018-12-24T00:25:16.988Z,7.03
2018-12-24T00:28:40.209Z,5.37
2018-12-24T00:32:03.437Z,6.47
2018-12-24T00:35:26.089Z,6.10
2018-12-24T00:38:48.964Z,4.10
2018-12-24T00:42:15.823Z,5.50
2018-12-24T00:45:36.020Z,3.00
2018-12-24T00:48:59.219Z,2.67
2018-12-24T00:52:22.173Z,4.60
2018-12-24T00:55:45.028Z,5.43
2018-12-24T00:59:08.180Z,7.40
2018-12-24T01:02:30.978Z,5.93
2018-12-24T01:05:53.876Z,6.83
2018-12-24T01:09:16.849Z,7.63
2018-12-24T01:12:39.800Z,8.17
2018-12-24T01:16:02.732Z,7.87
2018-12-24T01:19:25.634Z,8.13
2018-12-24T01:22:48.829Z,7.43
2018-12-24T01:26:11.867Z,8.20
2018-12-24T01:29:34.486Z,7.30
2018-12-24T01:32:57.319Z,6.50
2018-12-24T01:36:20.337Z,5.87
2018-12-24T01:39:42.973Z,6.80
2018-12-24T01:43:06.070Z,6.77
2018-12-24T01:46:28.955Z,6.47
2018-12-24T01:49:51.594Z,6.53
2018-12-24T01:53:14.476Z,5.97
2018-12-24T01:56:37.514Z,6.87
2018-12-24T02:00:00.164Z,6.53
2018-12-24T02:03:23.245Z,6.20
2018-12-24T02:06:46.338Z,5.83
2018-12-24T02:10:09.020Z,7.83
2018-12-24T02:13:32.628Z,7.13
2018-12-24T02:16:55.744Z,8.13
2018-12-24T02:20:18.844Z,7.87
2018-12-24T02:23:41.623Z,8.23
2018-12-24T02:27:04.496Z,8.47
2018-12-24T02:30:27.352Z,7.90
2018-12-24T02:33:50.776Z,10.53
2018-12-24T02:37:14.249Z,10.07
2018-12-24T02:40:37.354Z,11.07
2018-12-24T02:44:00.414Z,10.47
2018-12-24T02:47:23.465Z,11.23
2018-12-24T02:50:46.333Z,15.43
2018-12-24T02:54:09.418Z,14.03
2018-12-24T02:57:32.317Z,15.00
2018-12-24T03:00:55.081Z,15.17
2018-12-24T03:04:18.345Z,11.33
2018-12-24T03:07:41.666Z,10.63
2018-12-24T03:11:04.555Z,11.90
2018-12-24T03:14:28.015Z,12.10
2018-12-24T03:17:51.080Z,12.00
2018-12-24T03:21:14.391Z,15.60
2018-12-24T03:24:37.829Z,12.80
2018-12-24T03:28:01.326Z,13.37
2018-12-24T03:31:24.012Z,11.77
2018-12-24T03:34:46.887Z,9.17
2018-12-24T03:38:09.962Z,9.43
2018-12-24T03:41:33.145Z,7.47
2018-12-24T03:44:56.081Z,6.63
2018-12-24T03:48:19.245Z,6.07
2018-12-24T03:51:42.641Z,7.87
2018-12-24T03:55:05.931Z,4.97
2018-12-24T03:58:29.128Z,5.80
2018-12-24T04:01:51.892Z,6.07
2018-12-24T04:05:15.003Z,3.70
2018-12-24T04:08:38.056Z,5.40
2018-12-24T04:12:01.762Z,5.27
2018-12-24T04:15:24.906Z,5.33
2018-12-24T04:18:48.294Z,5.27
2018-12-24T04:22:11.277Z,4.83
2018-12-24T04:25:39.661Z,4.97
2018-12-24T04:29:02.434Z,3.50
2018-12-24T04:32:25.172Z,3.17
2018-12-24T04:35:48.114Z,2.97
2018-12-24T04:39:10.744Z,3.37
2018-12-24T04:42:36.841Z,3.40
2018-12-24T04:46:00.078Z,3.00
2018-12-24T04:49:23.438Z,2.37
2018-12-24T04:52:46.583Z,3.37
2018-12-24T04:56:09.648Z,3.67
2018-12-24T04:59:32.208Z,2.80
2018-12-24T05:02:54.766Z,3.03
2018-12-24T05:06:17.475Z,3.70
2018-12-24T05:09:40.088Z,4.60
2018-12-24T05:13:03.021Z,3.80
2018-12-24T05:16:26.051Z,4.20
2018-12-24T05:19:48.871Z,4.37
2018-12-24T05:23:11.784Z,4.33
2018-12-24T05:26:34.948Z,4.80
2018-12-24T05:29:58.149Z,5.47
2018-12-24T05:33:21.305Z,4.63
2018-12-24T05:36:44.044Z,4.40
2018-12-24T05:40:06.637Z,4.23
2018-12-24T05:43:29.843Z,5.20
2018-12-24T05:46:52.412Z,4.67
2018-12-24T05:50:15.280Z,5.00
2018-12-24T05:53:38.180Z,4.10
2018-12-24T05:57:00.795Z,4.80
2018-12-24T06:00:24.418Z,5.03
2018-12-24T06:03:47.633Z,4.90
2018-12-24T06:07:10.865Z,3.63
2018-12-24T06:10:33.872Z,3.73
2018-12-24T06:13:58.081Z,3.27
2018-12-24T06:17:21.355Z,3.10
2018-12-24T06:20:44.292Z,4.00
2018-12-24T06:24:07.209Z,3.90
2018-12-24T06:27:30.436Z,2.60
2018-12-24T06:30:53.416Z,3.50
2018-12-24T06:34:16.350Z,3.30
2018-12-24T06:37:39.442Z,3.67
2018-12-24T06:41:02.559Z,3.00
2018-12-24T06:44:25.262Z,2.87
2018-12-24T06:47:48.121Z,3.90
2018-12-24T06:51:10.734Z,3.63
2018-12-24T06:54:33.720Z,4.20
2018-12-24T06:57:56.405Z,4.00
2018-12-24T07:01:19.006Z,3.00
2018-12-24T07:04:41.721Z,3.03
2018-12-24T07:08:04.881Z,2.10
2018-12-24T07:11:27.581Z,2.30
2018-12-24T07:14:50.540Z,2.07
2018-12-24T07:18:13.822Z,2.43
2018-12-24T07:21:36.396Z,2.50
2018-12-24T07:24:59.035Z,1.80
2018-12-24T07:28:22.428Z,3.00
2018-12-24T07:31:45.153Z,3.03
2018-12-24T07:35:08.304Z,2.10
2018-12-24T07:38:31.710Z,2.70
2018-12-24T07:41:54.402Z,2.23
2018-12-24T07:45:17.176Z,2.33
2018-12-24T07:48:40.410Z,2.80
2018-12-24T07:52:03.265Z,2.00
2018-12-24T07:55:26.024Z,2.37
2018-12-24T07:58:49.129Z,2.00
2018-12-24T08:02:12.231Z,1.77
2018-12-24T08:05:35.342Z,1.73
2018-12-24T08:08:58.516Z,2.27
2018-12-24T08:12:21.276Z,2.10
2018-12-24T08:15:44.540Z,2.00
2018-12-24T08:19:07.821Z,1.40
2018-12-24T08:22:31.174Z,2.10
2018-12-24T08:25:54.638Z,2.60
2018-12-24T08:29:17.672Z,2.40
2018-12-24T08:32:40.453Z,1.97
2018-12-24T08:36:03.661Z,1.77
2018-12-24T08:39:26.803Z,2.30
2018-12-24T08:42:49.807Z,2.53
2018-12-24T08:46:12.825Z,3.40
2018-12-24T08:49:35.605Z,3.80
2018-12-24T08:52:58.379Z,3.33
2018-12-24T08:56:21.357Z,4.03
2018-12-24T08:59:44.050Z,2.80
2018-12-24T09:03:07.064Z,3.67
2018-12-24T09:06:30.021Z,3.90
2018-12-24T09:09:53.280Z,2.40
2018-12-24T09:13:16.657Z,2.90
2018-12-24T09:16:39.593Z,2.33
2018-12-24T09:20:02.349Z,3.10
2018-12-24T09:23:24.928Z,3.23
2018-12-24T09:26:47.589Z,2.90
2018-12-24T09:30:13.167Z,3.20
2018-12-24T09:33:35.861Z,2.67
2018-12-24T09:36:58.924Z,2.90
2018-12-24T09:40:22.159Z,2.70
2018-12-24T09:43:44.845Z,2.77
2018-12-24T09:47:07.608Z,3.37
2018-12-24T09:50:30.633Z,3.87
2018-12-24T09:53:53.838Z,2.70
2018-12-24T09:57:16.687Z,2.70
2018-12-24T10:00:39.684Z,3.27
2018-12-24T10:04:10.305Z,2.63
2018-12-24T10:07:40.499Z,3.30
2018-12-24T10:11:03.245Z,3.33
2018-12-24T10:14:26.374Z,3.30
2018-12-24T10:17:49.275Z,3.40
2018-12-24T10:21:12.184Z,4.07
2018-12-24T10:24:34.998Z,4.10
2018-12-24T10:27:58.022Z,4.17
2018-12-24T10:31:20.894Z,3.73
2018-12-24T10:34:43.533Z,4.10
2018-12-24T10:38:06.574Z,3.50
2018-12-24T10:41:29.758Z,5.57
2018-12-24T10:44:52.965Z,5.10
2018-12-24T10:48:15.792Z,4.27
2018-12-24T10:51:38.695Z,5.20
2018-12-24T10:55:01.961Z,4.17
2018-12-24T10:58:24.669Z,4.07
2018-12-24T11:01:47.209Z,4.43
2018-12-24T11:05:10.533Z,5.20
2018-12-24T11:09:05.737Z,4.93
2018-12-24T11:12:28.380Z,9.20
2018-12-24T11:15:50.761Z,8.23
2018-12-24T11:19:13.539Z,4.33
2018-12-24T11:22:36.092Z,4.10
2018-12-24T11:25:58.903Z,4.77
2018-12-24T11:29:21.121Z,4.60
2018-12-24T11:32:43.501Z,4.30
2018-12-24T11:36:06.052Z,3.83
2018-12-24T11:39:28.848Z,3.43
2018-12-24T11:42:51.320Z,4.07
2018-12-24T11:46:13.820Z,3.30
2018-12-24T11:49:36.257Z,3.40
2018-12-24T11:52:58.901Z,4.43
2018-12-24T11:56:21.282Z,3.37
2018-12-24T11:59:43.628Z,3.23
2018-12-24T12:03:06.320Z,3.57
2018-12-24T12:06:28.825Z,3.93
2018-12-24T12:09:51.522Z,3.17
2018-12-24T12:13:14.242Z,4.43
2018-12-24T12:16:36.654Z,3.60
2018-12-24T12:19:59.085Z,4.93
2018-12-24T12:23:21.554Z,8.33
2018-12-24T12:26:43.724Z,4.53
2018-12-24T12:30:08.417Z,6.63
2018-12-24T12:33:31.020Z,4.43
2018-12-24T12:36:53.628Z,4.40
2018-12-24T12:40:16.172Z,4.43
2018-12-24T12:43:38.636Z,5.70
2018-12-24T12:47:01.293Z,4.77
2018-12-24T12:50:23.677Z,4.87
2018-12-24T12:53:46.125Z,5.40
2018-12-24T12:57:08.860Z,5.10
2018-12-24T13:00:31.382Z,4.17
2018-12-24T13:03:53.605Z,3.03
2018-12-24T13:07:16.181Z,4.00
2018-12-24T13:10:38.860Z,3.50
2018-12-24T13:14:01.518Z,3.57
2018-12-24T13:17:24.161Z,3.53
2018-12-24T13:20:46.731Z,4.13
2018-12-24T13:24:09.285Z,3.43
2018-12-24T13:27:31.793Z,4.53
2018-12-24T13:30:54.157Z,3.83
2018-12-24T13:34:16.560Z,3.63
2018-12-24T13:37:38.905Z,3.77
2018-12-24T13:41:01.571Z,3.83
2018-12-24T13:44:24.050Z,3.83
2018-12-24T13:47:46.764Z,4.20
2018-12-24T13:51:09.205Z,4.63
2018-12-24T13:54:31.622Z,4.13
2018-12-24T13:57:54.272Z,4.23
2018-12-24T14:01:16.689Z,4.60
2018-12-24T14:04:39.398Z,3.57
2018-12-24T14:08:01.869Z,4.70
2018-12-24T14:11:24.341Z,4.00
2018-12-24T14:14:46.860Z,3.20
2018-12-24T14:18:09.272Z,5.60
2018-12-24T14:21:31.719Z,5.03
2018-12-24T14:24:54.232Z,4.43
2018-12-24T14:28:16.768Z,5.03
2018-12-24T14:31:39.563Z,5.50
2018-12-24T14:35:02.110Z,5.07
2018-12-24T14:38:24.697Z,4.53
2018-12-24T14:41:47.416Z,4.10
2018-12-24T14:45:10.035Z,3.53
2018-12-24T14:48:33.033Z,4.50
2018-12-24T14:51:55.188Z,4.20
2018-12-24T14:55:17.665Z,4.73
2018-12-24T14:58:40.033Z,5.70
2018-12-24T15:02:02.524Z,6.07
2018-12-24T15:05:24.902Z,5.67
2018-12-24T15:08:47.285Z,5.00
2018-12-24T15:12:09.631Z,5.13
2018-12-24T15:15:32.031Z,5.00
2018-12-24T15:18:54.764Z,5.83
2018-12-24T15:22:17.412Z,5.67
2018-12-24T15:25:39.794Z,4.33
2018-12-24T15:29:02.534Z,5.80
2018-12-24T15:32:24.885Z,5.67
2018-12-24T15:35:47.401Z,6.50
2018-12-24T15:39:09.891Z,6.30
2018-12-24T15:42:32.278Z,5.90
2018-12-24T15:45:54.927Z,5.43
2018-12-24T15:49:17.355Z,4.60
2018-12-24T15:52:39.984Z,7.67
2018-12-24T15:56:02.414Z,5.57
2018-12-24T15:59:24.821Z,6.23
2018-12-24T16:02:47.515Z,5.83
2018-12-24T16:06:09.848Z,5.10
2018-12-24T16:09:32.864Z,5.03
2018-12-24T16:12:55.524Z,4.67
2018-12-24T16:16:18.240Z,5.10
2018-12-24T16:19:42.113Z,5.10
2018-12-24T16:23:04.652Z,5.33
2018-12-24T16:26:27.320Z,6.10
2018-12-24T16:29:49.913Z,5.40
2018-12-24T16:33:12.509Z,5.67
2018-12-24T16:36:34.902Z,5.17
2018-12-24T16:39:57.273Z,5.10
2018-12-24T16:43:19.681Z,6.70
2018-12-24T16:46:42.069Z,5.73
2018-12-24T16:50:05.049Z,7.07
2018-12-24T16:53:27.527Z,7.70
2018-12-24T16:56:50.096Z,9.60
2018-12-24T17:00:13.812Z,8.97
2018-12-24T17:03:36.308Z,8.67
2018-12-24T17:06:59.046Z,6.47
2018-12-24T17:10:21.453Z,7.63
2018-12-24T17:13:44.135Z,7.13
2018-12-24T17:17:07.803Z,7.83
2018-12-24T17:20:30.780Z,6.50
2018-12-24T17:23:53.182Z,7.37
2018-12-24T17:27:15.316Z,5.90
2018-12-24T17:30:37.525Z,7.03
2018-12-24T17:34:00.196Z,6.70
2018-12-24T17:37:22.820Z,6.03
2018-12-24T17:40:45.831Z,6.27
2018-12-24T17:44:08.021Z,6.67
2018-12-24T17:47:30.389Z,5.90
2018-12-24T17:50:52.886Z,6.07
2018-12-24T17:54:15.627Z,6.60
2018-12-24T17:57:38.076Z,6.20
2018-12-24T18:01:00.849Z,6.20
2018-12-24T18:04:23.477Z,7.10
2018-12-24T18:07:46.091Z,7.53
2018-12-24T18:11:08.587Z,7.07
2018-12-24T18:14:31.505Z,8.60
2018-12-24T18:17:54.168Z,8.70
2018-12-24T18:21:16.697Z,8.23
2018-12-24T18:24:38.900Z,8.70
2018-12-24T18:28:01.460Z,13.73
2018-12-24T18:31:23.844Z,9.77
2018-12-24T18:34:46.334Z,8.50
2018-12-24T18:38:08.744Z,8.17
2018-12-24T18:41:30.960Z,7.80
2018-12-24T18:44:53.396Z,9.03
2018-12-24T18:48:15.813Z,8.77
2018-12-24T18:51:38.228Z,8.67
2018-12-24T18:55:00.648Z,8.30
2018-12-24T18:58:23.104Z,9.17
2018-12-24T19:01:45.463Z,8.77
2018-12-24T19:05:08.665Z,9.00
2018-12-24T19:08:30.693Z,10.13
2018-12-24T19:11:52.744Z,8.77
2018-12-24T19:15:15.275Z,7.93
2018-12-24T19:18:37.663Z,9.93
2018-12-24T19:21:59.829Z,8.57
2018-12-24T19:25:22.371Z,8.50
2018-12-24T19:28:45.278Z,9.57
2018-12-24T19:32:08.320Z,9.20
2018-12-24T19:35:30.935Z,8.30
2018-12-24T19:38:53.685Z,7.57
2018-12-24T19:42:15.940Z,8.70
2018-12-24T19:45:38.545Z,8.10
2018-12-24T19:49:01.160Z,7.73
2018-12-24T19:52:23.565Z,8.13
2018-12-24T19:55:45.963Z,9.80
2018-12-24T19:59:08.408Z,8.73
2018-12-24T20:02:30.882Z,8.17
2018-12-24T20:05:53.376Z,8.37
2018-12-24T20:09:16.318Z,8.30
2018-12-24T20:12:39.192Z,8.07
2018-12-24T20:16:01.898Z,8.67
2018-12-24T20:19:24.534Z,8.80
2018-12-24T20:22:46.923Z,10.07
2018-12-24T20:26:09.296Z,9.33
2018-12-24T20:29:31.672Z,8.03
2018-12-24T20:32:54.504Z,7.70
2018-12-24T20:36:16.874Z,9.17
2018-12-24T20:39:39.282Z,9.40
2018-12-24T20:43:01.766Z,9.80
2018-12-24T20:46:24.468Z,8.33
2018-12-24T20:49:46.673Z,10.33
2018-12-24T20:53:09.141Z,9.60
2018-12-24T20:56:31.679Z,8.33
2018-12-24T20:59:54.110Z,8.67
2018-12-24T21:03:16.881Z,8.70
2018-12-24T21:06:39.759Z,8.37
2018-12-24T21:10:02.364Z,8.10
2018-12-24T21:13:24.901Z,8.73
2018-12-24T21:16:47.485Z,9.13
2018-12-24T21:20:09.722Z,8.27
2018-12-24T21:23:32.392Z,8.53
2018-12-24T21:26:54.996Z,8.30
2018-12-24T21:30:17.705Z,8.37
2018-12-24T21:33:39.775Z,9.13
2018-12-24T21:37:02.168Z,10.30
2018-12-24T21:40:24.641Z,9.50
2018-12-24T21:43:47.376Z,9.27
2018-12-24T21:47:10.012Z,8.70
2018-12-24T21:50:32.405Z,10.00
2018-12-24T21:53:54.907Z,8.93
2018-12-24T21:57:17.451Z,9.57
2018-12-24T22:00:39.912Z,8.93
2018-12-24T22:04:02.417Z,9.10
2018-12-24T22:07:24.859Z,8.73
2018-12-24T22:10:47.554Z,9.67
2018-12-24T22:14:10.054Z,9.50
2018-12-24T22:17:32.229Z,9.30
2018-12-24T22:20:54.492Z,12.70
2018-12-24T22:24:17.047Z,10.20
2018-12-24T22:27:39.355Z,9.20
2018-12-24T22:31:01.970Z,8.77
2018-12-24T22:34:24.578Z,9.40
2018-12-24T22:37:47.353Z,8.40
2018-12-24T22:41:09.857Z,8.77
2018-12-24T22:44:32.217Z,11.90
2018-12-24T22:47:54.836Z,8.60
2018-12-24T22:51:17.556Z,8.83
2018-12-24T22:54:40.216Z,9.13
2018-12-24T22:58:02.985Z,8.67
2018-12-24T23:01:25.458Z,8.97
2018-12-24T23:04:47.605Z,8.90
2018-12-24T23:08:10.136Z,8.60
2018-12-24T23:11:32.883Z,8.27
2018-12-24T23:14:55.470Z,8.43
2018-12-24T23:18:18.198Z,8.03
2018-12-24T23:21:40.693Z,7.97
2018-12-24T23:25:03.166Z,7.83
2018-12-24T23:28:25.520Z,8.60
2018-12-24T23:31:47.948Z,7.53
2018-12-24T23:35:10.311Z,8.83
2018-12-24T23:38:33.084Z,8.07
2018-12-24T23:41:55.096Z,7.10
2018-12-24T23:45:17.547Z,7.67
2018-12-24T23:48:39.920Z,7.60
2018-12-24T23:52:02.579Z,7.23
2018-12-24T23:55:25.351Z,7.63
2018-12-24T23:58:47.660Z,8.00
